sensor_id;sensor_type;location;lat;lon;timestamp;pressure;altitude;pressure_sealevel;temperature;humidity
50710;BME280;37033;49.994;21.992;2023-03-14T00:02:26;98260.55;;;7.46;53.10
50710;BME280;37033;49.994;21.992;2023-03-14T00:04:57;98252.96;;;7.45;53.13
50710;BME280;37033;49.994;21.992;2023-03-14T00:07:28;98247.03;;;7.46;52.93
50710;BME280;37033;49.994;21.992;2023-03-14T00:10:04;98237.91;;;7.50;52.79
50710;BME280;37033;49.994;21.992;2023-03-14T00:12:36;98239.38;;;7.51;52.92
50710;BME280;37033;49.994;21.992;2023-03-14T00:15:09;98241.00;;;7.54;52.48
50710;BME280;37033;49.994;21.992;2023-03-14T00:17:40;98242.02;;;7.58;52.58
50710;BME280;37033;49.994;21.992;2023-03-14T00:20:13;98241.55;;;7.59;52.31
50710;BME280;37033;49.994;21.992;2023-03-14T00:22:44;98232.34;;;7.59;52.20
50710;BME280;37033;49.994;21.992;2023-03-14T00:25:15;98231.84;;;7.57;52.22
50710;BME280;37033;49.994;21.992;2023-03-14T00:27:46;98230.86;;;7.57;52.36
50710;BME280;37033;49.994;21.992;2023-03-14T00:30:18;98231.59;;;7.55;52.43
50710;BME280;37033;49.994;21.992;2023-03-14T00:32:49;98216.79;;;7.52;52.36
50710;BME280;37033;49.994;21.992;2023-03-14T00:35:20;98208.51;;;7.51;52.50
50710;BME280;37033;49.994;21.992;2023-03-14T00:37:51;98206.16;;;7.50;52.33
50710;BME280;37033;49.994;21.992;2023-03-14T00:40:22;98207.54;;;7.53;52.34
50710;BME280;37033;49.994;21.992;2023-03-14T00:42:52;98203.89;;;7.54;51.84
50710;BME280;37033;49.994;21.992;2023-03-14T00:45:23;98198.91;;;7.58;51.96
50710;BME280;37033;49.994;21.992;2023-03-14T00:47:54;98195.63;;;7.59;52.04
50710;BME280;37033;49.994;21.992;2023-03-14T00:50:25;98200.42;;;7.62;51.63
50710;BME280;37033;49.994;21.992;2023-03-14T00:52:56;98198.26;;;7.63;51.79
50710;BME280;37033;49.994;21.992;2023-03-14T00:55:28;98193.02;;;7.63;51.73
50710;BME280;37033;49.994;21.992;2023-03-14T00:57:59;98186.88;;;7.65;51.76
50710;BME280;37033;49.994;21.992;2023-03-14T01:00:29;98180.45;;;7.66;51.68
50710;BME280;37033;49.994;21.992;2023-03-14T01:03:00;98172.91;;;7.69;50.99
50710;BME280;37033;49.994;21.992;2023-03-14T01:05:31;98162.54;;;7.70;50.91
50710;BME280;37033;49.994;21.992;2023-03-14T01:08:02;98142.21;;;7.70;50.86
50710;BME280;37033;49.994;21.992;2023-03-14T01:10:33;98144.33;;;7.72;50.46
50710;BME280;37033;49.994;21.992;2023-03-14T01:13:04;98138.94;;;7.73;50.52
50710;BME280;37033;49.994;21.992;2023-03-14T01:15:36;98126.29;;;7.76;50.18
50710;BME280;37033;49.994;21.992;2023-03-14T01:18:07;98118.08;;;7.80;49.92
50710;BME280;37033;49.994;21.992;2023-03-14T01:20:38;98106.31;;;7.84;49.67
50710;BME280;37033;49.994;21.992;2023-03-14T01:23:09;98103.70;;;7.87;50.00
50710;BME280;37033;49.994;21.992;2023-03-14T01:25:43;98100.00;;;7.91;49.93
50710;BME280;37033;49.994;21.992;2023-03-14T01:28:14;98092.95;;;7.97;49.33
50710;BME280;37033;49.994;21.992;2023-03-14T01:30:45;98084.34;;;8.01;49.10
50710;BME280;37033;49.994;21.992;2023-03-14T01:33:16;98081.07;;;8.04;49.11
50710;BME280;37033;49.994;21.992;2023-03-14T01:35:49;98072.88;;;8.08;49.19
50710;BME280;37033;49.994;21.992;2023-03-14T01:38:19;98063.70;;;8.10;49.12
50710;BME280;37033;49.994;21.992;2023-03-14T01:40:51;98052.89;;;8.12;49.06
50710;BME280;37033;49.994;21.992;2023-03-14T01:43:21;98053.08;;;8.15;49.16
50710;BME280;37033;49.994;21.992;2023-03-14T01:46:19;98041.08;;;8.18;48.99
50710;BME280;37033;49.994;21.992;2023-03-14T01:49:04;98027.83;;;8.21;49.29
50710;BME280;37033;49.994;21.992;2023-03-14T01:51:42;98021.23;;;8.22;49.29
50710;BME280;37033;49.994;21.992;2023-03-14T01:54:18;98013.91;;;8.28;49.09
50710;BME280;37033;49.994;21.992;2023-03-14T01:56:52;98015.23;;;8.30;49.16
50710;BME280;37033;49.994;21.992;2023-03-14T01:59:23;98010.70;;;8.34;49.04
50710;BME280;37033;49.994;21.992;2023-03-14T02:01:55;98006.70;;;8.35;49.03
50710;BME280;37033;49.994;21.992;2023-03-14T02:04:28;98001.22;;;8.34;49.29
50710;BME280;37033;49.994;21.992;2023-03-14T02:07:05;97995.11;;;8.34;49.13
50710;BME280;37033;49.994;21.992;2023-03-14T02:09:40;98004.80;;;8.32;48.99
50710;BME280;37033;49.994;21.992;2023-03-14T02:12:14;98004.63;;;8.32;49.02
50710;BME280;37033;49.994;21.992;2023-03-14T02:14:46;98005.66;;;8.31;48.79
50710;BME280;37033;49.994;21.992;2023-03-14T02:17:19;98000.06;;;8.29;49.04
50710;BME280;37033;49.994;21.992;2023-03-14T02:20:07;98002.45;;;8.23;49.09
50710;BME280;37033;49.994;21.992;2023-03-14T02:22:42;98003.66;;;8.18;49.24
50710;BME280;37033;49.994;21.992;2023-03-14T02:25:16;98003.09;;;8.14;49.15
50710;BME280;37033;49.994;21.992;2023-03-14T02:27:51;98005.40;;;8.10;49.02
50710;BME280;37033;49.994;21.992;2023-03-14T02:30:24;97998.33;;;8.07;48.55
50710;BME280;37033;49.994;21.992;2023-03-14T02:32:58;97991.95;;;8.07;48.14
50710;BME280;37033;49.994;21.992;2023-03-14T02:35:35;97987.61;;;8.05;48.26
50710;BME280;37033;49.994;21.992;2023-03-14T02:38:13;97987.30;;;8.01;48.15
50710;BME280;37033;49.994;21.992;2023-03-14T02:40:47;97984.89;;;7.97;48.35
50710;BME280;37033;49.994;21.992;2023-03-14T02:43:19;97978.32;;;7.93;47.98
50710;BME280;37033;49.994;21.992;2023-03-14T02:45:51;97982.48;;;7.91;48.20
50710;BME280;37033;49.994;21.992;2023-03-14T02:48:26;97970.39;;;7.90;47.59
50710;BME280;37033;49.994;21.992;2023-03-14T02:50:59;97963.25;;;7.90;47.64
50710;BME280;37033;49.994;21.992;2023-03-14T02:53:33;97951.92;;;7.88;47.89
50710;BME280;37033;49.994;21.992;2023-03-14T02:56:06;97952.55;;;7.86;47.79
50710;BME280;37033;49.994;21.992;2023-03-14T02:58:37;97949.27;;;7.86;47.87
50710;BME280;37033;49.994;21.992;2023-03-14T03:01:09;97939.08;;;7.85;47.85
50710;BME280;37033;49.994;21.992;2023-03-14T03:03:40;97936.35;;;7.83;47.87
50710;BME280;37033;49.994;21.992;2023-03-14T03:06:10;97936.56;;;7.82;47.85
50710;BME280;37033;49.994;21.992;2023-03-14T03:08:42;97929.89;;;7.80;47.87
50710;BME280;37033;49.994;21.992;2023-03-14T03:11:16;97919.08;;;7.80;47.91
50710;BME280;37033;49.994;21.992;2023-03-14T03:13:48;97910.74;;;7.80;47.51
50710;BME280;37033;49.994;21.992;2023-03-14T03:16:19;97911.13;;;7.81;47.35
50710;BME280;37033;49.994;21.992;2023-03-14T03:18:49;97909.33;;;7.79;47.72
50710;BME280;37033;49.994;21.992;2023-03-14T03:21:20;97910.40;;;7.78;47.43
50710;BME280;37033;49.994;21.992;2023-03-14T03:23:54;97909.27;;;7.78;47.34
50710;BME280;37033;49.994;21.992;2023-03-14T03:26:25;97904.98;;;7.77;47.42
50710;BME280;37033;49.994;21.992;2023-03-14T03:28:56;97902.86;;;7.76;47.61
50710;BME280;37033;49.994;21.992;2023-03-14T03:31:27;97893.94;;;7.75;47.60
50710;BME280;37033;49.994;21.992;2023-03-14T03:33:59;97895.66;;;7.72;47.62
50710;BME280;37033;49.994;21.992;2023-03-14T03:36:29;97898.89;;;7.70;47.54
50710;BME280;37033;49.994;21.992;2023-03-14T03:39:01;97903.85;;;7.69;47.77
50710;BME280;37033;49.994;21.992;2023-03-14T03:41:32;97895.78;;;7.67;47.81
50710;BME280;37033;49.994;21.992;2023-03-14T03:44:04;97893.91;;;7.65;47.88
50710;BME280;37033;49.994;21.992;2023-03-14T03:46:35;97892.45;;;7.63;47.98
50710;BME280;37033;49.994;21.992;2023-03-14T03:49:06;97891.91;;;7.63;47.80
50710;BME280;37033;49.994;21.992;2023-03-14T03:51:37;97886.95;;;7.65;47.67
50710;BME280;37033;49.994;21.992;2023-03-14T03:54:08;97879.55;;;7.68;47.54
50710;BME280;37033;49.994;21.992;2023-03-14T03:56:39;97871.92;;;7.67;47.83
50710;BME280;37033;49.994;21.992;2023-03-14T03:59:09;97866.60;;;7.65;47.91
50710;BME280;37033;49.994;21.992;2023-03-14T04:01:41;97850.19;;;7.62;47.68
50710;BME280;37033;49.994;21.992;2023-03-14T04:04:12;97847.82;;;7.63;47.59
50710;BME280;37033;49.994;21.992;2023-03-14T04:06:43;97835.93;;;7.64;47.54
50710;BME280;37033;49.994;21.992;2023-03-14T04:09:14;97831.55;;;7.65;47.60
50710;BME280;37033;49.994;21.992;2023-03-14T04:11:44;97825.34;;;7.65;47.52
50710;BME280;37033;49.994;21.992;2023-03-14T04:14:16;97821.11;;;7.65;47.64
50710;BME280;37033;49.994;21.992;2023-03-14T04:16:47;97817.66;;;7.66;47.31
50710;BME280;37033;49.994;21.992;2023-03-14T04:19:18;97812.56;;;7.70;47.16
50710;BME280;37033;49.994;21.992;2023-03-14T04:21:49;97807.43;;;7.71;47.26
50710;BME280;37033;49.994;21.992;2023-03-14T04:24:20;97790.27;;;7.72;47.07
50710;BME280;37033;49.994;21.992;2023-03-14T04:26:51;97794.98;;;7.74;47.28
50710;BME280;37033;49.994;21.992;2023-03-14T04:29:22;97791.52;;;7.74;47.15
50710;BME280;37033;49.994;21.992;2023-03-14T04:31:53;97785.00;;;7.76;47.22
50710;BME280;37033;49.994;21.992;2023-03-14T04:34:24;97785.16;;;7.77;47.07
50710;BME280;37033;49.994;21.992;2023-03-14T04:36:55;97779.71;;;7.79;46.90
50710;BME280;37033;49.994;21.992;2023-03-14T04:39:26;97786.84;;;7.85;46.72
50710;BME280;37033;49.994;21.992;2023-03-14T04:41:56;97781.48;;;7.87;46.72
50710;BME280;37033;49.994;21.992;2023-03-14T04:44:27;97784.19;;;7.87;46.91
50710;BME280;37033;49.994;21.992;2023-03-14T04:46:58;97781.64;;;7.86;47.09
50710;BME280;37033;49.994;21.992;2023-03-14T04:49:29;97779.46;;;7.83;47.40
50710;BME280;37033;49.994;21.992;2023-03-14T04:52:00;97789.98;;;7.80;47.46
50710;BME280;37033;49.994;21.992;2023-03-14T04:54:32;97791.96;;;7.76;47.68
50710;BME280;37033;49.994;21.992;2023-03-14T04:57:03;97797.65;;;7.74;47.58
50710;BME280;37033;49.994;21.992;2023-03-14T04:59:34;97791.35;;;7.70;47.75
50710;BME280;37033;49.994;21.992;2023-03-14T05:02:05;97794.84;;;7.67;47.97
50710;BME280;37033;49.994;21.992;2023-03-14T05:04:39;97800.67;;;7.65;48.07
50710;BME280;37033;49.994;21.992;2023-03-14T05:07:13;97804.50;;;7.63;48.24
50710;BME280;37033;49.994;21.992;2023-03-14T05:09:44;97797.36;;;7.62;48.44
50710;BME280;37033;49.994;21.992;2023-03-14T05:12:15;97798.50;;;7.62;48.42
50710;BME280;37033;49.994;21.992;2023-03-14T05:14:46;97784.28;;;7.63;48.57
50710;BME280;37033;49.994;21.992;2023-03-14T05:17:17;97784.17;;;7.64;48.65
50710;BME280;37033;49.994;21.992;2023-03-14T05:19:48;97782.60;;;7.65;48.65
50710;BME280;37033;49.994;21.992;2023-03-14T05:22:19;97777.20;;;7.66;48.68
50710;BME280;37033;49.994;21.992;2023-03-14T05:24:50;97777.00;;;7.67;48.58
50710;BME280;37033;49.994;21.992;2023-03-14T05:27:23;97773.28;;;7.69;48.47
50710;BME280;37033;49.994;21.992;2023-03-14T05:29:56;97780.14;;;7.69;48.65
50710;BME280;37033;49.994;21.992;2023-03-14T05:32:27;97781.34;;;7.70;48.66
50710;BME280;37033;49.994;21.992;2023-03-14T05:35:01;97779.08;;;7.71;48.74
50710;BME280;37033;49.994;21.992;2023-03-14T05:37:32;97776.48;;;7.72;48.80
50710;BME280;37033;49.994;21.992;2023-03-14T05:40:09;97769.56;;;7.73;48.79
50710;BME280;37033;49.994;21.992;2023-03-14T05:42:40;97765.04;;;7.77;48.48
50710;BME280;37033;49.994;21.992;2023-03-14T05:45:13;97764.29;;;7.79;48.65
50710;BME280;37033;49.994;21.992;2023-03-14T05:47:44;97757.10;;;7.79;48.76
50710;BME280;37033;49.994;21.992;2023-03-14T05:50:18;97757.69;;;7.80;48.83
50710;BME280;37033;49.994;21.992;2023-03-14T05:52:49;97758.63;;;7.82;48.92
50710;BME280;37033;49.994;21.992;2023-03-14T05:55:20;97758.70;;;7.88;48.95
50710;BME280;37033;49.994;21.992;2023-03-14T05:57:52;97759.33;;;7.95;48.69
50710;BME280;37033;49.994;21.992;2023-03-14T06:00:23;97757.63;;;8.03;48.68
50710;BME280;37033;49.994;21.992;2023-03-14T06:02:54;97758.48;;;8.11;48.82
50710;BME280;37033;49.994;21.992;2023-03-14T06:05:25;97762.38;;;8.18;48.71
50710;BME280;37033;49.994;21.992;2023-03-14T06:07:56;97760.35;;;8.24;48.81
50710;BME280;37033;49.994;21.992;2023-03-14T06:10:27;97759.92;;;8.28;48.80
50710;BME280;37033;49.994;21.992;2023-03-14T06:12:59;97752.52;;;8.31;48.93
50710;BME280;37033;49.994;21.992;2023-03-14T06:15:30;97744.19;;;8.35;48.72
50710;BME280;37033;49.994;21.992;2023-03-14T06:18:02;97744.11;;;8.41;48.17
50710;BME280;37033;49.994;21.992;2023-03-14T06:20:33;97732.92;;;8.50;48.15
50710;BME280;37033;49.994;21.992;2023-03-14T06:23:06;97735.65;;;8.61;48.26
50710;BME280;37033;49.994;21.992;2023-03-14T06:25:37;97735.73;;;8.69;48.51
50710;BME280;37033;49.994;21.992;2023-03-14T06:28:08;97726.95;;;8.79;48.00
50710;BME280;37033;49.994;21.992;2023-03-14T06:30:40;97734.38;;;8.85;47.88
50710;BME280;37033;49.994;21.992;2023-03-14T06:33:10;97722.71;;;8.91;47.78
50710;BME280;37033;49.994;21.992;2023-03-14T06:35:41;97716.75;;;8.98;47.58
50710;BME280;37033;49.994;21.992;2023-03-14T06:38:12;97704.34;;;9.03;47.35
50710;BME280;37033;49.994;21.992;2023-03-14T06:40:43;97695.27;;;9.07;47.51
50710;BME280;37033;49.994;21.992;2023-03-14T06:43:14;97692.67;;;9.10;47.37
50710;BME280;37033;49.994;21.992;2023-03-14T06:45:45;97697.98;;;9.13;46.94
50710;BME280;37033;49.994;21.992;2023-03-14T06:48:16;97691.85;;;9.16;47.08
50710;BME280;37033;49.994;21.992;2023-03-14T06:50:49;97693.09;;;9.20;47.28
50710;BME280;37033;49.994;21.992;2023-03-14T06:53:19;97686.40;;;9.27;47.01
50710;BME280;37033;49.994;21.992;2023-03-14T06:55:51;97684.54;;;9.35;46.96
50710;BME280;37033;49.994;21.992;2023-03-14T06:58:21;97691.02;;;9.44;46.96
50710;BME280;37033;49.994;21.992;2023-03-14T07:00:53;97697.41;;;9.52;46.96
50710;BME280;37033;49.994;21.992;2023-03-14T07:03:24;97695.70;;;9.59;47.08
50710;BME280;37033;49.994;21.992;2023-03-14T07:05:55;97687.36;;;9.67;46.97
50710;BME280;37033;49.994;21.992;2023-03-14T07:08:28;97685.05;;;9.75;46.56
50710;BME280;37033;49.994;21.992;2023-03-14T07:10:59;97680.07;;;9.85;46.49
50710;BME280;37033;49.994;21.992;2023-03-14T07:13:30;97685.66;;;9.96;46.40
50710;BME280;37033;49.994;21.992;2023-03-14T07:16:05;97687.56;;;10.06;46.82
50710;BME280;37033;49.994;21.992;2023-03-14T07:18:36;97678.70;;;10.18;46.16
50710;BME280;37033;49.994;21.992;2023-03-14T07:21:08;97676.36;;;10.26;46.40
50710;BME280;37033;49.994;21.992;2023-03-14T07:23:40;97685.67;;;10.36;46.57
50710;BME280;37033;49.994;21.992;2023-03-14T07:26:11;97685.98;;;10.46;46.14
50710;BME280;37033;49.994;21.992;2023-03-14T07:28:42;97680.98;;;10.54;45.98
50710;BME280;37033;49.994;21.992;2023-03-14T07:31:13;97683.34;;;10.60;46.14
50710;BME280;37033;49.994;21.992;2023-03-14T07:33:44;97680.10;;;10.65;45.82
50710;BME280;37033;49.994;21.992;2023-03-14T07:36:15;97676.95;;;10.71;45.83
50710;BME280;37033;49.994;21.992;2023-03-14T07:38:47;97671.92;;;10.79;46.16
50710;BME280;37033;49.994;21.992;2023-03-14T07:41:18;97670.89;;;10.86;45.94
50710;BME280;37033;49.994;21.992;2023-03-14T07:43:50;97672.23;;;10.95;45.30
50710;BME280;37033;49.994;21.992;2023-03-14T07:46:21;97673.67;;;11.02;45.29
50710;BME280;37033;49.994;21.992;2023-03-14T07:48:51;97669.77;;;11.08;44.84
50710;BME280;37033;49.994;21.992;2023-03-14T07:51:22;97663.55;;;11.10;45.16
50710;BME280;37033;49.994;21.992;2023-03-14T07:53:53;97662.59;;;11.14;45.31
50710;BME280;37033;49.994;21.992;2023-03-14T07:56:24;97665.43;;;11.18;45.29
50710;BME280;37033;49.994;21.992;2023-03-14T07:58:55;97667.09;;;11.25;45.01
50710;BME280;37033;49.994;21.992;2023-03-14T08:01:27;97647.59;;;11.28;44.76
50710;BME280;37033;49.994;21.992;2023-03-14T08:03:58;97644.38;;;11.28;45.12
50710;BME280;37033;49.994;21.992;2023-03-14T08:06:29;97638.66;;;11.28;45.44
50710;BME280;37033;49.994;21.992;2023-03-14T08:09:00;97627.23;;;11.29;45.73
50710;BME280;37033;49.994;21.992;2023-03-14T08:11:31;97629.84;;;11.34;45.85
50710;BME280;37033;49.994;21.992;2023-03-14T08:14:02;97628.78;;;11.41;45.97
50710;BME280;37033;49.994;21.992;2023-03-14T08:16:33;97629.83;;;11.50;45.95
50710;BME280;37033;49.994;21.992;2023-03-14T08:19:04;97623.77;;;11.56;46.02
50710;BME280;37033;49.994;21.992;2023-03-14T08:21:35;97611.81;;;11.62;45.29
50710;BME280;37033;49.994;21.992;2023-03-14T08:24:06;97608.96;;;11.68;45.59
50710;BME280;37033;49.994;21.992;2023-03-14T08:26:37;97602.66;;;11.75;45.38
50710;BME280;37033;49.994;21.992;2023-03-14T08:29:09;97590.58;;;11.79;44.70
50710;BME280;37033;49.994;21.992;2023-03-14T08:31:39;97597.02;;;11.81;44.89
50710;BME280;37033;49.994;21.992;2023-03-14T08:34:10;97584.87;;;11.88;45.48
50710;BME280;37033;49.994;21.992;2023-03-14T08:36:41;97590.85;;;12.00;44.52
50710;BME280;37033;49.994;21.992;2023-03-14T08:39:12;97583.02;;;12.06;44.87
50710;BME280;37033;49.994;21.992;2023-03-14T08:41:50;97589.24;;;12.14;45.07
50710;BME280;37033;49.994;21.992;2023-03-14T08:44:21;97588.13;;;12.18;44.34
50710;BME280;37033;49.994;21.992;2023-03-14T08:46:52;97600.11;;;12.18;44.72
50710;BME280;37033;49.994;21.992;2023-03-14T08:49:23;97599.38;;;12.20;44.48
50710;BME280;37033;49.994;21.992;2023-03-14T08:51:54;97606.36;;;12.26;44.85
50710;BME280;37033;49.994;21.992;2023-03-14T08:54:25;97602.34;;;12.33;44.37
50710;BME280;37033;49.994;21.992;2023-03-14T08:56:56;97589.01;;;12.35;44.48
50710;BME280;37033;49.994;21.992;2023-03-14T08:59:30;97577.91;;;12.38;44.52
50710;BME280;37033;49.994;21.992;2023-03-14T09:02:01;97588.80;;;12.38;44.83
50710;BME280;37033;49.994;21.992;2023-03-14T09:04:33;97590.23;;;12.40;44.91
50710;BME280;37033;49.994;21.992;2023-03-14T09:07:04;97591.84;;;12.42;45.08
50710;BME280;37033;49.994;21.992;2023-03-14T09:09:35;97598.27;;;12.46;45.12
50710;BME280;37033;49.994;21.992;2023-03-14T09:12:06;97605.12;;;12.47;44.56
50710;BME280;37033;49.994;21.992;2023-03-14T09:14:38;97621.70;;;12.47;44.78
50710;BME280;37033;49.994;21.992;2023-03-14T09:17:09;97621.57;;;12.48;44.84
50710;BME280;37033;49.994;21.992;2023-03-14T09:19:40;97623.73;;;12.49;44.56
50710;BME280;37033;49.994;21.992;2023-03-14T09:22:11;97623.77;;;12.42;43.99
50710;BME280;37033;49.994;21.992;2023-03-14T09:24:42;97644.34;;;12.37;43.98
50710;BME280;37033;49.994;21.992;2023-03-14T09:27:13;97639.80;;;12.32;44.29
50710;BME280;37033;49.994;21.992;2023-03-14T09:29:44;97642.17;;;12.29;44.52
50710;BME280;37033;49.994;21.992;2023-03-14T09:32:15;97643.24;;;12.30;44.67
50710;BME280;37033;49.994;21.992;2023-03-14T09:34:46;97644.38;;;12.36;45.07
50710;BME280;37033;49.994;21.992;2023-03-14T09:37:17;97642.21;;;12.48;45.02
50710;BME280;37033;49.994;21.992;2023-03-14T09:39:49;97635.76;;;12.59;44.56
50710;BME280;37033;49.994;21.992;2023-03-14T09:42:23;97631.54;;;12.62;43.80
50710;BME280;37033;49.994;21.992;2023-03-14T09:44:59;97641.20;;;12.57;44.18
50710;BME280;37033;49.994;21.992;2023-03-14T09:47:31;97659.96;;;12.53;44.22
50710;BME280;37033;49.994;21.992;2023-03-14T09:50:05;97656.02;;;12.54;44.27
50710;BME280;37033;49.994;21.992;2023-03-14T09:52:42;97646.17;;;12.63;44.31
50710;BME280;37033;49.994;21.992;2023-03-14T09:55:18;97660.80;;;12.73;44.44
50710;BME280;37033;49.994;21.992;2023-03-14T09:57:54;97670.49;;;12.80;44.34
50710;BME280;37033;49.994;21.992;2023-03-14T10:00:29;97662.52;;;12.81;43.79
50710;BME280;37033;49.994;21.992;2023-03-14T10:03:24;97671.91;;;12.77;43.85
50710;BME280;37033;49.994;21.992;2023-03-14T10:05:56;97681.41;;;12.73;44.19
50710;BME280;37033;49.994;21.992;2023-03-14T10:08:27;97674.78;;;12.81;44.54
50710;BME280;37033;49.994;21.992;2023-03-14T10:11:00;97665.41;;;12.93;44.29
50710;BME280;37033;49.994;21.992;2023-03-14T10:13:32;97661.84;;;13.04;44.17
50710;BME280;37033;49.994;21.992;2023-03-14T10:16:04;97659.21;;;13.14;44.02
50710;BME280;37033;49.994;21.992;2023-03-14T10:18:45;97670.30;;;13.26;44.23
50710;BME280;37033;49.994;21.992;2023-03-14T10:21:27;97657.85;;;13.37;43.71
50710;BME280;37033;49.994;21.992;2023-03-14T10:24:16;97654.22;;;13.49;43.61
50710;BME280;37033;49.994;21.992;2023-03-14T10:26:53;97651.52;;;13.56;43.27
50710;BME280;37033;49.994;21.992;2023-03-14T10:29:28;97655.74;;;13.52;42.85
50710;BME280;37033;49.994;21.992;2023-03-14T10:32:03;97651.91;;;13.41;42.90
50710;BME280;37033;49.994;21.992;2023-03-14T10:34:35;97655.54;;;13.35;43.49
50710;BME280;37033;49.994;21.992;2023-03-14T10:37:16;97646.50;;;13.34;43.92
50710;BME280;37033;49.994;21.992;2023-03-14T10:39:51;97659.42;;;13.31;43.73
50710;BME280;37033;49.994;21.992;2023-03-14T10:42:28;97662.48;;;13.26;43.87
50710;BME280;37033;49.994;21.992;2023-03-14T10:45:00;97662.08;;;13.21;44.11
50710;BME280;37033;49.994;21.992;2023-03-14T10:47:33;97658.95;;;13.19;44.11
50710;BME280;37033;49.994;21.992;2023-03-14T10:50:23;97662.61;;;13.09;43.88
50710;BME280;37033;49.994;21.992;2023-03-14T10:52:55;97662.14;;;12.97;44.08
50710;BME280;37033;49.994;21.992;2023-03-14T10:55:26;97653.90;;;12.87;44.13
50710;BME280;37033;49.994;21.992;2023-03-14T10:57:59;97658.95;;;12.76;44.11
50710;BME280;37033;49.994;21.992;2023-03-14T11:00:32;97654.71;;;12.68;44.40
50710;BME280;37033;49.994;21.992;2023-03-14T11:03:10;97650.98;;;12.62;44.71
50710;BME280;37033;49.994;21.992;2023-03-14T11:05:46;97652.91;;;12.65;44.98
50710;BME280;37033;49.994;21.992;2023-03-14T11:08:23;97647.46;;;12.68;44.80
50710;BME280;37033;49.994;21.992;2023-03-14T11:11:10;97650.57;;;12.78;45.53
50710;BME280;37033;49.994;21.992;2023-03-14T11:13:57;97657.23;;;12.96;45.06
50710;BME280;37033;49.994;21.992;2023-03-14T11:16:37;97654.34;;;13.06;44.50
50710;BME280;37033;49.994;21.992;2023-03-14T11:19:34;97657.64;;;13.10;44.73
50710;BME280;37033;49.994;21.992;2023-03-14T11:22:26;97661.21;;;13.18;45.22
50710;BME280;37033;49.994;21.992;2023-03-14T11:25:14;97662.85;;;13.28;45.25
50710;BME280;37033;49.994;21.992;2023-03-14T11:28:05;97658.99;;;13.37;44.74
50710;BME280;37033;49.994;21.992;2023-03-14T11:30:43;97647.33;;;13.41;45.02
50710;BME280;37033;49.994;21.992;2023-03-14T11:33:23;97644.77;;;13.47;44.94
50710;BME280;37033;49.994;21.992;2023-03-14T11:35:59;97641.20;;;13.53;45.00
50710;BME280;37033;49.994;21.992;2023-03-14T11:38:40;97647.58;;;13.62;45.33
50710;BME280;37033;49.994;21.992;2023-03-14T11:41:17;97646.23;;;13.72;45.04
50710;BME280;37033;49.994;21.992;2023-03-14T11:43:53;97638.40;;;13.81;45.04
50710;BME280;37033;49.994;21.992;2023-03-14T11:46:28;97633.13;;;13.87;44.46
50710;BME280;37033;49.994;21.992;2023-03-14T11:49:10;97626.27;;;13.91;44.24
50710;BME280;37033;49.994;21.992;2023-03-14T11:51:46;97628.14;;;13.93;44.55
50710;BME280;37033;49.994;21.992;2023-03-14T11:54:20;97632.66;;;14.03;44.62
50710;BME280;37033;49.994;21.992;2023-03-14T11:56:57;97628.17;;;14.14;44.39
50710;BME280;37033;49.994;21.992;2023-03-14T11:59:41;97625.75;;;14.20;43.91
50710;BME280;37033;49.994;21.992;2023-03-14T12:02:20;97621.55;;;14.26;44.25
50710;BME280;37033;49.994;21.992;2023-03-14T12:05:02;97625.52;;;14.30;43.63
50710;BME280;37033;49.994;21.992;2023-03-14T12:07:43;97625.23;;;14.28;43.50
50710;BME280;37033;49.994;21.992;2023-03-14T12:10:24;97621.21;;;14.27;43.77
50710;BME280;37033;49.994;21.992;2023-03-14T12:12:55;97619.34;;;14.31;43.63
50710;BME280;37033;49.994;21.992;2023-03-14T12:15:27;97616.48;;;14.39;43.46
50710;BME280;37033;49.994;21.992;2023-03-14T12:17:59;97618.29;;;14.44;43.16
50710;BME280;37033;49.994;21.992;2023-03-14T12:20:30;97615.32;;;14.43;43.09
50710;BME280;37033;49.994;21.992;2023-03-14T12:23:05;97616.27;;;14.41;43.24
50710;BME280;37033;49.994;21.992;2023-03-14T12:25:42;97612.37;;;14.40;43.45
50710;BME280;37033;49.994;21.992;2023-03-14T12:28:21;97618.39;;;14.37;43.53
50710;BME280;37033;49.994;21.992;2023-03-14T12:34:10;97617.06;;;14.40;43.63
50710;BME280;37033;49.994;21.992;2023-03-14T12:37:00;97617.13;;;14.38;43.71
50710;BME280;37033;49.994;21.992;2023-03-14T12:39:42;97608.40;;;14.39;43.98
50710;BME280;37033;49.994;21.992;2023-03-14T12:42:20;97596.40;;;14.42;43.84
50710;BME280;37033;49.994;21.992;2023-03-14T12:44:52;97602.98;;;14.44;43.85
50710;BME280;37033;49.994;21.992;2023-03-14T12:47:49;97599.27;;;14.42;43.67
50710;BME280;37033;49.994;21.992;2023-03-14T12:50:33;97603.67;;;14.38;44.16
50710;BME280;37033;49.994;21.992;2023-03-14T12:56:04;97592.53;;;14.49;43.90
50710;BME280;37033;49.994;21.992;2023-03-14T12:58:41;97588.40;;;14.52;43.95
50710;BME280;37033;49.994;21.992;2023-03-14T13:01:19;97588.82;;;14.63;44.03
50710;BME280;37033;49.994;21.992;2023-03-14T13:03:52;97590.23;;;14.70;43.69
50710;BME280;37033;49.994;21.992;2023-03-14T13:06:55;97595.04;;;14.76;43.69
50710;BME280;37033;49.994;21.992;2023-03-14T13:09:55;97593.22;;;14.82;43.48
50710;BME280;37033;49.994;21.992;2023-03-14T13:12:36;97589.21;;;14.75;43.39
50710;BME280;37033;49.994;21.992;2023-03-14T13:15:19;97597.88;;;14.64;43.70
50710;BME280;37033;49.994;21.992;2023-03-14T13:17:52;97600.28;;;14.51;43.71
50710;BME280;37033;49.994;21.992;2023-03-14T13:20:30;97596.37;;;14.46;44.12
50710;BME280;37033;49.994;21.992;2023-03-14T13:23:01;97588.92;;;14.45;44.42
50710;BME280;37033;49.994;21.992;2023-03-14T13:25:36;97593.05;;;14.41;44.31
50710;BME280;37033;49.994;21.992;2023-03-14T13:28:11;97593.57;;;14.37;44.10
50710;BME280;37033;49.994;21.992;2023-03-14T13:30:50;97597.52;;;14.35;44.09
50710;BME280;37033;49.994;21.992;2023-03-14T13:33:24;97602.67;;;14.38;44.48
50710;BME280;37033;49.994;21.992;2023-03-14T13:36:00;97603.29;;;14.47;44.53